sensor_id;sensor_type;location;lat;lon;timestamp;temperature;humidity
1329;DHT22;658;48.820;9.354;2023-01-16T00:03:21;21.70;42.60
1329;DHT22;658;48.820;9.354;2023-01-16T00:07:22;21.70;42.60
1329;DHT22;658;48.820;9.354;2023-01-16T00:11:22;21.60;42.60
1329;DHT22;658;48.820;9.354;2023-01-16T00:15:23;21.60;42.50
1329;DHT22;658;48.820;9.354;2023-01-16T00:19:24;21.60;42.50
1329;DHT22;658;48.820;9.354;2023-01-16T00:23:24;21.60;42.50
1329;DHT22;658;48.820;9.354;2023-01-16T00:27:25;21.60;42.50
1329;DHT22;658;48.820;9.354;2023-01-16T00:31:25;21.60;42.50
1329;DHT22;658;48.820;9.354;2023-01-16T00:35:26;21.50;42.40
1329;DHT22;658;48.820;9.354;2023-01-16T00:39:27;21.50;42.40
1329;DHT22;658;48.820;9.354;2023-01-16T00:43:27;21.50;42.40
1329;DHT22;658;48.820;9.354;2023-01-16T00:47:28;21.50;42.40
1329;DHT22;658;48.820;9.354;2023-01-16T00:51:29;21.50;42.40
1329;DHT22;658;48.820;9.354;2023-01-16T00:55:29;21.50;42.30
1329;DHT22;658;48.820;9.354;2023-01-16T00:59:30;21.50;42.30
1329;DHT22;658;48.820;9.354;2023-01-16T01:03:31;21.50;42.30
1329;DHT22;658;48.820;9.354;2023-01-16T01:07:32;21.60;42.40
1329;DHT22;658;48.820;9.354;2023-01-16T01:11:32;21.60;42.30
1329;DHT22;658;48.820;9.354;2023-01-16T01:15:33;21.60;42.40
1329;DHT22;658;48.820;9.354;2023-01-16T01:19:34;21.60;42.40
1329;DHT22;658;48.820;9.354;2023-01-16T01:23:35;21.60;42.40
1329;DHT22;658;48.820;9.354;2023-01-16T01:27:36;21.60;42.40
1329;DHT22;658;48.820;9.354;2023-01-16T01:31:37;21.60;42.40
1329;DHT22;658;48.820;9.354;2023-01-16T01:35:38;21.60;42.40
1329;DHT22;658;48.820;9.354;2023-01-16T01:39:38;21.60;43.00
1329;DHT22;658;48.820;9.354;2023-01-16T01:43:51;21.60;42.60
1329;DHT22;658;48.820;9.354;2023-01-16T01:52:11;21.60;42.50
1329;DHT22;658;48.820;9.354;2023-01-16T01:56:35;21.60;42.50
1329;DHT22;658;48.820;9.354;2023-01-16T02:00:37;21.60;42.50
1329;DHT22;658;48.820;9.354;2023-01-16T02:04:41;21.60;42.40
1329;DHT22;658;48.820;9.354;2023-01-16T02:08:42;21.60;42.50
1329;DHT22;658;48.820;9.354;2023-01-16T02:12:44;21.60;42.50
1329;DHT22;658;48.820;9.354;2023-01-16T02:16:46;21.60;42.40
1329;DHT22;658;48.820;9.354;2023-01-16T02:30:08;21.60;42.40
1329;DHT22;658;48.820;9.354;2023-01-16T02:38:46;21.60;42.40
1329;DHT22;658;48.820;9.354;2023-01-16T02:47:26;21.60;42.50
1329;DHT22;658;48.820;9.354;2023-01-16T02:55:55;21.60;42.30
1329;DHT22;658;48.820;9.354;2023-01-16T03:00:05;21.60;42.40
1329;DHT22;658;48.820;9.354;2023-01-16T03:04:39;21.60;42.40
1329;DHT22;658;48.820;9.354;2023-01-16T03:08:58;21.60;42.40
1329;DHT22;658;48.820;9.354;2023-01-16T03:17:44;21.60;42.40
1329;DHT22;658;48.820;9.354;2023-01-16T03:22:16;21.60;42.50
1329;DHT22;658;48.820;9.354;2023-01-16T03:26:28;21.60;42.40
1329;DHT22;658;48.820;9.354;2023-01-16T03:30:51;21.60;42.40
1329;DHT22;658;48.820;9.354;2023-01-16T03:35:06;21.60;42.50
1329;DHT22;658;48.820;9.354;2023-01-16T03:39:10;21.60;42.50
1329;DHT22;658;48.820;9.354;2023-01-16T03:43:26;21.60;42.50
1329;DHT22;658;48.820;9.354;2023-01-16T03:47:37;21.60;42.40
1329;DHT22;658;48.820;9.354;2023-01-16T03:51:51;21.60;42.50
1329;DHT22;658;48.820;9.354;2023-01-16T03:56:23;21.60;42.50
1329;DHT22;658;48.820;9.354;2023-01-16T04:00:36;21.60;42.50
1329;DHT22;658;48.820;9.354;2023-01-16T04:09:09;21.60;42.40
1329;DHT22;658;48.820;9.354;2023-01-16T04:13:16;21.60;42.50
1329;DHT22;658;48.820;9.354;2023-01-16T04:17:18;21.60;42.50
1329;DHT22;658;48.820;9.354;2023-01-16T04:21:19;21.60;42.50
1329;DHT22;658;48.820;9.354;2023-01-16T04:25:20;21.60;42.50
1329;DHT22;658;48.820;9.354;2023-01-16T04:29:21;21.60;42.50
1329;DHT22;658;48.820;9.354;2023-01-16T04:33:21;21.60;42.50
1329;DHT22;658;48.820;9.354;2023-01-16T04:37:22;21.50;42.50
1329;DHT22;658;48.820;9.354;2023-01-16T04:41:23;21.50;42.50
1329;DHT22;658;48.820;9.354;2023-01-16T04:45:40;21.50;42.40
1329;DHT22;658;48.820;9.354;2023-01-16T04:49:41;21.60;42.50
1329;DHT22;658;48.820;9.354;2023-01-16T04:53:41;21.50;42.50
1329;DHT22;658;48.820;9.354;2023-01-16T04:57:42;21.50;42.50
1329;DHT22;658;48.820;9.354;2023-01-16T05:01:42;21.50;42.50
1329;DHT22;658;48.820;9.354;2023-01-16T05:05:43;21.50;42.50
1329;DHT22;658;48.820;9.354;2023-01-16T05:09:44;21.50;42.50
1329;DHT22;658;48.820;9.354;2023-01-16T05:13:44;21.50;42.50
1329;DHT22;658;48.820;9.354;2023-01-16T05:17:46;21.50;42.50
1329;DHT22;658;48.820;9.354;2023-01-16T05:21:46;21.50;42.60
1329;DHT22;658;48.820;9.354;2023-01-16T05:25:47;21.50;42.60
1329;DHT22;658;48.820;9.354;2023-01-16T05:29:48;21.50;42.60
1329;DHT22;658;48.820;9.354;2023-01-16T05:33:49;21.50;42.50
1329;DHT22;658;48.820;9.354;2023-01-16T05:37:49;21.50;42.50
1329;DHT22;658;48.820;9.354;2023-01-16T05:41:50;21.50;42.50
1329;DHT22;658;48.820;9.354;2023-01-16T05:45:51;21.50;42.60
1329;DHT22;658;48.820;9.354;2023-01-16T05:49:51;21.50;42.60
1329;DHT22;658;48.820;9.354;2023-01-16T05:53:52;21.50;42.50
1329;DHT22;658;48.820;9.354;2023-01-16T05:57:53;21.50;42.50
1329;DHT22;658;48.820;9.354;2023-01-16T06:01:53;21.50;42.50
1329;DHT22;658;48.820;9.354;2023-01-16T06:05:54;21.50;43.10
1329;DHT22;658;48.820;9.354;2023-01-16T06:09:54;21.50;42.50
1329;DHT22;658;48.820;9.354;2023-01-16T06:13:55;21.50;42.50
1329;DHT22;658;48.820;9.354;2023-01-16T06:17:56;21.50;42.50
1329;DHT22;658;48.820;9.354;2023-01-16T06:21:57;21.50;42.50
1329;DHT22;658;48.820;9.354;2023-01-16T06:25:57;21.50;42.50
1329;DHT22;658;48.820;9.354;2023-01-16T06:29:58;21.50;42.50
1329;DHT22;658;48.820;9.354;2023-01-16T06:33:58;21.50;42.50
1329;DHT22;658;48.820;9.354;2023-01-16T06:37:59;21.50;42.50
1329;DHT22;658;48.820;9.354;2023-01-16T06:42:00;21.50;42.50
1329;DHT22;658;48.820;9.354;2023-01-16T06:46:01;21.50;42.50
1329;DHT22;658;48.820;9.354;2023-01-16T06:50:02;21.50;42.40
1329;DHT22;658;48.820;9.354;2023-01-16T06:54:02;21.60;42.80
1329;DHT22;658;48.820;9.354;2023-01-16T06:58:03;21.70;43.00
1329;DHT22;658;48.820;9.354;2023-01-16T07:02:04;21.80;42.80
1329;DHT22;658;48.820;9.354;2023-01-16T07:06:04;21.90;42.50
1329;DHT22;658;48.820;9.354;2023-01-16T07:10:05;22.00;42.50
1329;DHT22;658;48.820;9.354;2023-01-16T07:14:06;22.10;42.10
1329;DHT22;658;48.820;9.354;2023-01-16T07:18:25;22.20;42.20
1329;DHT22;658;48.820;9.354;2023-01-16T07:22:44;22.30;42.20
1329;DHT22;658;48.820;9.354;2023-01-16T07:26:51;22.40;43.90
1329;DHT22;658;48.820;9.354;2023-01-16T07:30:52;22.40;44.30
1329;DHT22;658;48.820;9.354;2023-01-16T07:34:53;22.50;44.40
1329;DHT22;658;48.820;9.354;2023-01-16T07:38:54;22.60;44.40
1329;DHT22;658;48.820;9.354;2023-01-16T07:42:54;22.70;44.40
1329;DHT22;658;48.820;9.354;2023-01-16T07:46:55;22.70;44.50
1329;DHT22;658;48.820;9.354;2023-01-16T07:50:57;22.80;44.20
1329;DHT22;658;48.820;9.354;2023-01-16T07:54:58;22.80;43.90
1329;DHT22;658;48.820;9.354;2023-01-16T07:58:59;22.80;43.70
1329;DHT22;658;48.820;9.354;2023-01-16T08:02:59;22.90;43.60
1329;DHT22;658;48.820;9.354;2023-01-16T08:07:00;22.90;43.00
1329;DHT22;658;48.820;9.354;2023-01-16T08:11:01;23.00;42.80
1329;DHT22;658;48.820;9.354;2023-01-16T08:15:24;23.00;42.60
1329;DHT22;658;48.820;9.354;2023-01-16T08:19:25;23.00;42.20
1329;DHT22;658;48.820;9.354;2023-01-16T08:23:25;23.10;42.10
1329;DHT22;658;48.820;9.354;2023-01-16T08:27:26;23.10;41.80
1329;DHT22;658;48.820;9.354;2023-01-16T08:31:26;23.10;41.50
1329;DHT22;658;48.820;9.354;2023-01-16T08:35:28;23.10;41.70
1329;DHT22;658;48.820;9.354;2023-01-16T08:39:28;23.20;41.40
1329;DHT22;658;48.820;9.354;2023-01-16T08:43:29;23.10;41.30
1329;DHT22;658;48.820;9.354;2023-01-16T08:47:48;23.20;41.40
1329;DHT22;658;48.820;9.354;2023-01-16T08:52:07;23.20;41.20
1329;DHT22;658;48.820;9.354;2023-01-16T08:56:08;23.20;41.20
1329;DHT22;658;48.820;9.354;2023-01-16T09:00:09;23.20;41.10
1329;DHT22;658;48.820;9.354;2023-01-16T09:04:10;23.20;41.00
1329;DHT22;658;48.820;9.354;2023-01-16T09:08:10;23.30;40.90
1329;DHT22;658;48.820;9.354;2023-01-16T09:12:12;23.30;40.90
1329;DHT22;658;48.820;9.354;2023-01-16T09:16:31;23.30;40.80
1329;DHT22;658;48.820;9.354;2023-01-16T09:20:32;23.30;41.00
1329;DHT22;658;48.820;9.354;2023-01-16T09:24:34;23.30;41.00
1329;DHT22;658;48.820;9.354;2023-01-16T09:28:35;23.30;40.80
1329;DHT22;658;48.820;9.354;2023-01-16T09:32:35;23.20;40.70
1329;DHT22;658;48.820;9.354;2023-01-16T09:36:36;23.20;40.70
1329;DHT22;658;48.820;9.354;2023-01-16T09:40:37;23.20;40.70
1329;DHT22;658;48.820;9.354;2023-01-16T09:44:38;23.20;41.50
1329;DHT22;658;48.820;9.354;2023-01-16T09:48:58;23.30;40.60
1329;DHT22;658;48.820;9.354;2023-01-16T09:53:01;23.20;40.70
1329;DHT22;658;48.820;9.354;2023-01-16T09:57:21;23.20;40.70
1329;DHT22;658;48.820;9.354;2023-01-16T10:01:43;23.20;40.70
1329;DHT22;658;48.820;9.354;2023-01-16T10:05:52;23.20;40.70
1329;DHT22;658;48.820;9.354;2023-01-16T10:14:27;23.20;41.00
1329;DHT22;658;48.820;9.354;2023-01-16T10:18:57;23.30;40.50
1329;DHT22;658;48.820;9.354;2023-01-16T10:31:45;23.20;40.60
1329;DHT22;658;48.820;9.354;2023-01-16T10:35:49;23.20;40.40
1329;DHT22;658;48.820;9.354;2023-01-16T10:39:52;23.20;40.50
1329;DHT22;658;48.820;9.354;2023-01-16T10:43:53;23.20;40.40
1329;DHT22;658;48.820;9.354;2023-01-16T10:48:15;23.20;40.30
1329;DHT22;658;48.820;9.354;2023-01-16T10:52:35;23.20;40.40
1329;DHT22;658;48.820;9.354;2023-01-16T10:56:36;23.20;40.40
1329;DHT22;658;48.820;9.354;2023-01-16T11:00:43;23.30;40.20
1329;DHT22;658;48.820;9.354;2023-01-16T11:04:45;23.30;40.10
1329;DHT22;658;48.820;9.354;2023-01-16T11:09:03;23.30;40.00
1329;DHT22;658;48.820;9.354;2023-01-16T11:13:04;23.40;40.00
1329;DHT22;658;48.820;9.354;2023-01-16T11:21:54;23.30;40.00
1329;DHT22;658;48.820;9.354;2023-01-16T11:25:55;23.40;40.00
1329;DHT22;658;48.820;9.354;2023-01-16T11:29:58;23.40;39.90
1329;DHT22;658;48.820;9.354;2023-01-16T11:34:03;23.40;39.90
1329;DHT22;658;48.820;9.354;2023-01-16T11:38:13;23.40;39.90
1329;DHT22;658;48.820;9.354;2023-01-16T11:42:15;23.40;40.00
1329;DHT22;658;48.820;9.354;2023-01-16T11:46:37;23.40;39.90
1329;DHT22;658;48.820;9.354;2023-01-16T11:50:38;23.40;39.80
1329;DHT22;658;48.820;9.354;2023-01-16T11:54:40;23.40;39.80
1329;DHT22;658;48.820;9.354;2023-01-16T12:07:19;23.50;39.60
1329;DHT22;658;48.820;9.354;2023-01-16T12:24:26;23.50;39.40
1329;DHT22;658;48.820;9.354;2023-01-16T12:37:45;23.50;39.10
1329;DHT22;658;48.820;9.354;2023-01-16T12:42:07;23.50;39.40
1329;DHT22;658;48.820;9.354;2023-01-16T12:46:45;23.50;39.60
1329;DHT22;658;48.820;9.354;2023-01-16T12:51:22;23.50;39.70
1329;DHT22;658;48.820;9.354;2023-01-16T12:55:35;23.60;39.70
1329;DHT22;658;48.820;9.354;2023-01-16T13:04:23;23.90;39.30
1329;DHT22;658;48.820;9.354;2023-01-16T13:08:41;24.00;38.50
1329;DHT22;658;48.820;9.354;2023-01-16T13:12:44;24.00;38.50
1329;DHT22;658;48.820;9.354;2023-01-16T13:17:07;24.00;38.50
1329;DHT22;658;48.820;9.354;2023-01-16T13:21:33;23.90;38.50
1329;DHT22;658;48.820;9.354;2023-01-16T13:25:38;23.90;38.50
1329;DHT22;658;48.820;9.354;2023-01-16T13:29:44;23.90;38.30
1329;DHT22;658;48.820;9.354;2023-01-16T13:33:51;23.90;38.30
1329;DHT22;658;48.820;9.354;2023-01-16T13:42:08;24.20;38.10
1329;DHT22;658;48.820;9.354;2023-01-16T13:46:10;24.40;36.50
1329;DHT22;658;48.820;9.354;2023-01-16T13:50:25;24.80;35.70
1329;DHT22;658;48.820;9.354;2023-01-16T13:54:36;25.30;34.90
1329;DHT22;658;48.820;9.354;2023-01-16T13:58:40;26.70;33.00
1329;DHT22;658;48.820;9.354;2023-01-16T14:02:45;27.60;31.50
1329;DHT22;658;48.820;9.354;2023-01-16T14:07:02;26.80;32.70
1329;DHT22;658;48.820;9.354;2023-01-16T14:11:33;25.90;34.60
1329;DHT22;658;48.820;9.354;2023-01-16T14:20:36;24.90;36.70
1329;DHT22;658;48.820;9.354;2023-01-16T14:24:47;24.60;37.20
1329;DHT22;658;48.820;9.354;2023-01-16T14:28:49;24.50;37.40
1329;DHT22;658;48.820;9.354;2023-01-16T14:33:03;24.30;37.50
1329;DHT22;658;48.820;9.354;2023-01-16T14:37:12;24.30;37.90
1329;DHT22;658;48.820;9.354;2023-01-16T14:41:17;24.10;38.00
1329;DHT22;658;48.820;9.354;2023-01-16T14:46:13;24.10;38.30
1329;DHT22;658;48.820;9.354;2023-01-16T14:50:55;23.90;39.10
1329;DHT22;658;48.820;9.354;2023-01-16T14:55:17;23.90;38.60
1329;DHT22;658;48.820;9.354;2023-01-16T14:59:41;23.80;38.70
1329;DHT22;658;48.820;9.354;2023-01-16T15:03:44;23.80;38.70
1329;DHT22;658;48.820;9.354;2023-01-16T15:07:49;23.80;38.90
1329;DHT22;658;48.820;9.354;2023-01-16T15:11:58;23.70;39.00
1329;DHT22;658;48.820;9.354;2023-01-16T15:16:04;23.70;39.10
1329;DHT22;658;48.820;9.354;2023-01-16T15:24:31;23.60;39.10
1329;DHT22;658;48.820;9.354;2023-01-16T15:32:55;23.60;39.30
1329;DHT22;658;48.820;9.354;2023-01-16T15:37:24;23.50;39.40
1329;DHT22;658;48.820;9.354;2023-01-16T15:41:30;23.60;39.40
1329;DHT22;658;48.820;9.354;2023-01-16T15:46:25;23.60;39.20
1329;DHT22;658;48.820;9.354;2023-01-16T15:50:42;23.60;39.20
1329;DHT22;658;48.820;9.354;2023-01-16T15:54:44;23.60;39.30
1329;DHT22;658;48.820;9.354;2023-01-16T15:58:45;23.50;39.40
1329;DHT22;658;48.820;9.354;2023-01-16T16:02:48;23.50;39.40
1329;DHT22;658;48.820;9.354;2023-01-16T16:06:48;23.50;39.30
1329;DHT22;658;48.820;9.354;2023-01-16T16:10:51;23.50;39.50
1329;DHT22;658;48.820;9.354;2023-01-16T16:15:20;23.50;39.40
1329;DHT22;658;48.820;9.354;2023-01-16T16:19:40;23.50;39.40
1329;DHT22;658;48.820;9.354;2023-01-16T16:23:40;23.50;39.60
1329;DHT22;658;48.820;9.354;2023-01-16T16:27:41;23.60;39.20
1329;DHT22;658;48.820;9.354;2023-01-16T16:31:42;23.60;39.20
1329;DHT22;658;48.820;9.354;2023-01-16T16:35:49;23.60;39.10
1329;DHT22;658;48.820;9.354;2023-01-16T16:40:12;23.60;39.10
1329;DHT22;658;48.820;9.354;2023-01-16T16:44:21;23.60;38.90
1329;DHT22;658;48.820;9.354;2023-01-16T16:48:29;23.50;39.10
1329;DHT22;658;48.820;9.354;2023-01-16T16:52:34;23.50;39.30
1329;DHT22;658;48.820;9.354;2023-01-16T16:56:43;23.50;39.20
1329;DHT22;658;48.820;9.354;2023-01-16T17:00:45;23.40;39.40
1329;DHT22;658;48.820;9.354;2023-01-16T17:04:46;23.40;39.30
1329;DHT22;658;48.820;9.354;2023-01-16T17:08:47;23.40;39.40
1329;DHT22;658;48.820;9.354;2023-01-16T17:12:48;23.40;39.40
1329;DHT22;658;48.820;9.354;2023-01-16T17:16:48;23.40;39.40
1329;DHT22;658;48.820;9.354;2023-01-16T17:20:49;23.30;39.30
1329;DHT22;658;48.820;9.354;2023-01-16T17:24:53;23.30;39.40
1329;DHT22;658;48.820;9.354;2023-01-16T17:28:54;23.20;39.30
1329;DHT22;658;48.820;9.354;2023-01-16T17:33:03;23.20;39.70
1329;DHT22;658;48.820;9.354;2023-01-16T17:37:13;23.10;39.30
1329;DHT22;658;48.820;9.354;2023-01-16T17:41:17;23.20;39.30
1329;DHT22;658;48.820;9.354;2023-01-16T17:45:30;23.20;39.90
1329;DHT22;658;48.820;9.354;2023-01-16T17:49:51;23.10;39.30
1329;DHT22;658;48.820;9.354;2023-01-16T17:54:10;23.20;39.40
1329;DHT22;658;48.820;9.354;2023-01-16T17:58:36;23.10;39.30
1329;DHT22;658;48.820;9.354;2023-01-16T18:02:49;23.10;39.40
1329;DHT22;658;48.820;9.354;2023-01-16T18:06:49;23.00;39.40
1329;DHT22;658;48.820;9.354;2023-01-16T18:10:50;23.00;39.40
1329;DHT22;658;48.820;9.354;2023-01-16T18:14:50;23.00;39.40
1329;DHT22;658;48.820;9.354;2023-01-16T18:19:10;23.00;39.30
1329;DHT22;658;48.820;9.354;2023-01-16T18:23:10;23.00;39.40
1329;DHT22;658;48.820;9.354;2023-01-16T18:27:15;23.00;39.40
1329;DHT22;658;48.820;9.354;2023-01-16T18:31:19;23.00;39.40
1329;DHT22;658;48.820;9.354;2023-01-16T18:35:20;23.00;39.40
1329;DHT22;658;48.820;9.354;2023-01-16T18:39:22;23.00;39.50
1329;DHT22;658;48.820;9.354;2023-01-16T18:43:41;23.00;39.40
1329;DHT22;658;48.820;9.354;2023-01-16T18:48:01;23.00;39.50
1329;DHT22;658;48.820;9.354;2023-01-16T18:52:20;22.90;39.40
1329;DHT22;658;48.820;9.354;2023-01-16T18:56:41;22.90;39.40
1329;DHT22;658;48.820;9.354;2023-01-16T19:01:01;22.90;39.40
1329;DHT22;658;48.820;9.354;2023-01-16T19:05:20;22.90;39.50
1329;DHT22;658;48.820;9.354;2023-01-16T19:09:21;22.90;39.50
1329;DHT22;658;48.820;9.354;2023-01-16T19:13:22;22.90;39.50
1329;DHT22;658;48.820;9.354;2023-01-16T19:17:37;22.90;39.50
1329;DHT22;658;48.820;9.354;2023-01-16T19:21:37;22.90;39.60
1329;DHT22;658;48.820;9.354;2023-01-16T19:25:40;22.90;39.60
1329;DHT22;658;48.820;9.354;2023-01-16T19:29:41;22.90;39.60
1329;DHT22;658;48.820;9.354;2023-01-16T19:33:41;22.90;39.60
1329;DHT22;658;48.820;9.354;2023-01-16T19:37:42;22.80;39.60
1329;DHT22;658;48.820;9.354;2023-01-16T19:41:44;22.80;39.70
1329;DHT22;658;48.820;9.354;2023-01-16T19:46:04;22.90;39.80
1329;DHT22;658;48.820;9.354;2023-01-16T19:50:27;22.80;39.80
1329;DHT22;658;48.820;9.354;2023-01-16T19:54:29;22.80;39.80
1329;DHT22;658;48.820;9.354;2023-01-16T19:58:30;22.80;39.70
1329;DHT22;658;48.820;9.354;2023-01-16T20:02:30;22.90;39.80
1329;DHT22;658;48.820;9.354;2023-01-16T20:06:31;22.80;39.80
1329;DHT22;658;48.820;9.354;2023-01-16T20:10:32;22.80;39.80
1329;DHT22;658;48.820;9.354;2023-01-16T20:14:33;22.80;39.80
1329;DHT22;658;48.820;9.354;2023-01-16T20:18:34;22.80;40.30
1329;DHT22;658;48.820;9.354;2023-01-16T20:22:36;22.90;40.00
1329;DHT22;658;48.820;9.354;2023-01-16T20:26:36;22.80;40.00
1329;DHT22;658;48.820;9.354;2023-01-16T20:30:39;22.80;40.20
1329;DHT22;658;48.820;9.354;2023-01-16T20:34:45;22.90;40.30
1329;DHT22;658;48.820;9.354;2023-01-16T20:38:46;22.90;40.30
1329;DHT22;658;48.820;9.354;2023-01-16T20:42:48;22.90;40.30
1329;DHT22;658;48.820;9.354;2023-01-16T20:47:09;22.90;40.60
1329;DHT22;658;48.820;9.354;2023-01-16T20:51:10;22.90;40.40
1329;DHT22;658;48.820;9.354;2023-01-16T20:55:10;22.90;40.40
1329;DHT22;658;48.820;9.354;2023-01-16T20:59:12;22.90;40.40
1329;DHT22;658;48.820;9.354;2023-01-16T21:03:14;22.90;40.60
1329;DHT22;658;48.820;9.354;2023-01-16T21:07:14;22.90;40.30
1329;DHT22;658;48.820;9.354;2023-01-16T21:11:15;22.90;40.30
1329;DHT22;658;48.820;9.354;2023-01-16T21:15:34;22.90;40.50
1329;DHT22;658;48.820;9.354;2023-01-16T21:19:35;22.90;40.30
1329;DHT22;658;48.820;9.354;2023-01-16T21:23:54;23.00;40.20
1329;DHT22;658;48.820;9.354;2023-01-16T21:27:56;23.00;40.30
1329;DHT22;658;48.820;9.354;2023-01-16T21:31:58;23.00;40.10
1329;DHT22;658;48.820;9.354;2023-01-16T21:36:05;23.00;40.20
1329;DHT22;658;48.820;9.354;2023-01-16T21:40:07;23.00;40.20
1329;DHT22;658;48.820;9.354;2023-01-16T21:44:07;23.00;40.00
1329;DHT22;658;48.820;9.354;2023-01-16T21:48:27;23.10;40.00
1329;DHT22;658;48.820;9.354;2023-01-16T21:52:28;23.10;39.80
1329;DHT22;658;48.820;9.354;2023-01-16T21:56:28;23.00;39.90
1329;DHT22;658;48.820;9.354;2023-01-16T22:00:29;23.00;39.80
1329;DHT22;658;48.820;9.354;2023-01-16T22:04:30;22.90;39.90
1329;DHT22;658;48.820;9.354;2023-01-16T22:08:30;22.80;40.00
1329;DHT22;658;48.820;9.354;2023-01-16T22:12:31;22.70;40.10
1329;DHT22;658;48.820;9.354;2023-01-16T22:16:55;22.60;40.40
1329;DHT22;658;48.820;9.354;2023-01-16T22:21:14;22.50;40.30
1329;DHT22;658;48.820;9.354;2023-01-16T22:25:16;22.40;40.50
1329;DHT22;658;48.820;9.354;2023-01-16T22:29:17;22.30;40.50
1329;DHT22;658;48.820;9.354;2023-01-16T22:33:20;22.30;40.70
1329;DHT22;658;48.820;9.354;2023-01-16T22:37:22;22.30;40.70
1329;DHT22;658;48.820;9.354;2023-01-16T22:41:22;22.20;40.80
1329;DHT22;658;48.820;9.354;2023-01-16T22:45:23;22.10;40.70
1329;DHT22;658;48.820;9.354;2023-01-16T22:49:42;22.10;40.70
1329;DHT22;658;48.820;9.354;2023-01-16T22:53:43;22.10;40.80
1329;DHT22;658;48.820;9.354;2023-01-16T22:57:44;22.10;40.80
1329;DHT22;658;48.820;9.354;2023-01-16T23:01:45;22.00;40.70
1329;DHT22;658;48.820;9.354;2023-01-16T23:05:46;22.00;40.80
1329;DHT22;658;48.820;9.354;2023-01-16T23:09:47;22.00;40.80
1329;DHT22;658;48.820;9.354;2023-01-16T23:13:48;22.00;40.80
1329;DHT22;658;48.820;9.354;2023-01-16T23:17:49;22.00;40.80
1329;DHT22;658;48.820;9.354;2023-01-16T23:21:51;22.00;40.80
1329;DHT22;658;48.820;9.354;2023-01-16T23:25:52;21.90;40.70
1329;DHT22;658;48.820;9.354;2023-01-16T23:29:53;21.90;40.70
1329;DHT22;658;48.820;9.354;2023-01-16T23:33:53;21.90;40.80
1329;DHT22;658;48.820;9.354;2023-01-16T23:37:54;21.90;40.80
1329;DHT22;658;48.820;9.354;2023-01-16T23:41:55;21.90;41.30
1329;DHT22;658;48.820;9.354;2023-01-16T23:46:14;21.90;40.80
1329;DHT22;658;48.820;9.354;2023-01-16T23:50:15;21.90;40.80
1329;DHT22;658;48.820;9.354;2023-01-16T23:54:15;21.90;40.80
1329;DHT22;658;48.820;9.354;2023-01-16T23:58:16;21.80;40.70
